Time;durP1;ratioP1;P1;durP2;ratioP2;P2;SDS_P1;SDS_P2;PMS_P1;PMS_P2;Temp;Humidity;BMP_temperature;BMP_pressure;BME280_temperature;BME280_humidity;BME280_pressure;Samples;Min_cycle;Max_cycle;Signal;HPM_P1;HPM_P2
2021/05/12 00:00:17;;;;;;;;;;;;;;;;;;1475448;40;7020;-62
2021/05/12 00:01:20;;;;;;;;;;;;;;;;;;1475353;40;7207;-63
2021/05/12 00:02:22;;;;;;;;;;;;;;;;;;1475221;40;7016;-64
2021/05/12 00:03:24;;;;;;;;;;;;;;;;;;1478880;40;7047;-61
2021/05/12 00:04:27;;;;;;;;;;;;;;;;;;1479381;40;7016;-62
2021/05/12 00:05:29;;;;;;;;;;;;;;;;;;1476361;40;7919;-62
2021/05/12 00:06:32;;;;;;;;;;;;;;;;;;1475204;40;7871;-62
2021/05/12 00:07:34;;;;;;;;;;;;;;;;;;1475140;40;7179;-63
2021/05/12 00:08:37;;;;;;;;;;;;;;;;;;1475513;40;7039;-63
2021/05/12 00:09:39;;;;;;;;;;;;;;;;;;1475039;40;7004;-63
2021/05/12 00:10:42;;;;;;;;;;;;;;;;;;1475065;40;6999;-61
2021/05/12 00:11:44;;;;;;;;;;;;;;;;;;1475059;40;7271;-61
2021/05/12 00:12:48;;;;;;;;;;;;;;;;;;1475118;40;7927;-63
2021/05/12 00:13:51;;;;;;;;;;;;;;;;;;1475362;40;7023;-62
2021/05/12 00:14:53;;;;;;;;;;;;;;;;;;1474929;40;7860;-64
2021/05/12 00:15:55;;;;;;;;;;;;;;;;;;1474992;40;7005;-62
2021/05/12 00:17:01;;;;;;;;;;;;;;;;;;1476439;40;7008;-62
2021/05/12 00:18:10;;;;;;;;;;;;;;;;;;1475368;40;7008;-61
2021/05/12 00:19:13;;;;;;;;;;;;;;;;;;1474813;40;7007;-60
2021/05/12 00:20:21;;;;;;;;;;;;;;;;;;1478862;40;7007;-60
2021/05/12 00:21:42;;;;;;;;;;;;;;;;;;1477648;40;7008;-62
2021/05/12 00:22:53;;;;;;;;;;;;;;;;;;1474576;40;7016;-61
2021/05/12 00:24:01;;;;;;;;;;;;;;;;;;1474950;40;7008;-64
2021/05/12 00:25:05;;;;;;;;;;;;;;;;;;1478456;40;7008;-62
2021/05/12 00:26:08;;;;;;;;;;;;;;;;;;1478270;40;7023;-63
2021/05/12 00:27:10;;;;;;;;;;;;;;;;;;1475591;40;7023;-61
2021/05/12 00:28:12;;;;;;;;;;;;;;;;;;1479056;40;7945;-61
2021/05/12 00:29:15;;;;;;;;;;;;;;;;;;1476970;40;7148;-61
2021/05/12 00:30:19;;;;;;;;;;;;;;;;;;1474738;40;7031;-61
2021/05/12 00:31:22;;;;;;;;;;;;;;;;;;1476585;40;7000;-62
2021/05/12 00:32:24;;;;;;;;;;;;;;;;;;1479116;40;7888;-62
2021/05/12 00:33:27;;;;;;;;;;;;;;;;;;1479175;40;7039;-62
2021/05/12 00:34:29;;;;;;;;;;;;;;;;;;1478671;40;7051;-60
2021/05/12 00:35:31;;;;;;;;;;;;;;;;;;1478614;40;7228;-60
2021/05/12 00:36:34;;;;;;;;;;;;;;;;;;1479200;40;7119;-60
2021/05/12 00:37:38;;;;;;;;;;;;;;;;;;1474923;40;7111;-61
2021/05/12 00:38:40;;;;;;;;;;;;;;;;;;1475042;40;7835;-63
2021/05/12 00:39:43;;;;;;;;;;;;;;;;;;1475105;40;7931;-65
2021/05/12 00:40:45;;;;;;;;;;;;;;;;;;1475251;40;7494;-60
2021/05/12 00:41:48;;;;;;;;;;;;;;;;;;1479173;40;7000;-60
2021/05/12 00:42:50;;;;;;;;;;;;;;;;;;1478541;40;7401;-62
2021/05/12 00:43:53;;;;;;;;;;;;;;;;;;1478912;40;7020;-63
2021/05/12 00:44:56;;;;;;;;;;;;;;;;;;1478981;40;7008;-62
2021/05/12 00:45:59;;;;;;;;;;;;;;;;;;1477402;40;7939;-62
2021/05/12 00:47:04;;;;;;;;;;;;;;;;;;1474946;40;7008;-63
2021/05/12 00:48:07;;;;;;;;;;;;;;;;;;1474891;40;7894;-61
2021/05/12 00:49:09;;;;;;;;;;;;;;;;;;1475174;40;7000;-63
2021/05/12 00:50:11;;;;;;;;;;;;;;;;;;1474959;40;6999;-62
2021/05/12 00:51:14;;;;;;;;;;;;;;;;;;1475145;40;7009;-61
2021/05/12 00:52:16;;;;;;;;;;;;;;;;;;1475149;40;6999;-60
2021/05/12 00:53:19;;;;;;;;;;;;;;;;;;1478460;40;7165;-61
2021/05/12 00:54:21;;;;;;;;;;;;;;;;;;1478355;40;7975;-62
2021/05/12 00:55:23;;;;;;;;;;;;;;;;;;1474746;40;7104;-63
2021/05/12 00:56:26;;;;;;;;;;;;;;;;;;1474756;40;7009;-62
2021/05/12 00:57:28;;;;;;;;;;;;;;;;;;1475270;40;6999;-61
2021/05/12 00:58:31;;;;;;;;;;;;;;;;;;1479066;40;7943;-62
2021/05/12 00:59:34;;;;;;;;;;;;;;;;;;1479357;40;7003;-61
2021/05/12 01:00:37;;;;;;;;;;;;;;;;;;1479256;40;7223;-61
2021/05/12 01:01:39;;;;;;;;;;;;;;;;;;1479507;40;7035;-61
2021/05/12 01:02:42;;;;;;;;;;;;;;;;;;1478947;40;7051;-61
2021/05/12 01:03:44;;;;;;;;;;;;;;;;;;1479174;40;6999;-63
2021/05/12 01:04:48;;;;;;;;;;;;;;;;;;1478770;40;7052;-61
2021/05/12 01:05:50;;;;;;;;;;;;;;;;;;1479170;40;7122;-60
2021/05/12 01:06:52;;;;;;;;;;;;;;;;;;1479158;40;7207;-61
2021/05/12 01:07:56;;;;;;;;;;;;;;;;;;1479258;40;7115;-61
2021/05/12 01:08:58;;;;;;;;;;;;;;;;;;1479000;40;7108;-63
2021/05/12 01:10:01;;;;;;;;;;;;;;;;;;1479147;40;7948;-61
2021/05/12 01:11:03;;;;;;;;;;;;;;;;;;1479053;40;7092;-62
2021/05/12 01:12:06;;;;;;;;;;;;;;;;;;1479461;40;7016;-62
2021/05/12 01:13:09;;;;;;;;;;;;;;;;;;1479123;40;7007;-60
2021/05/12 01:14:11;;;;;;;;;;;;;;;;;;1479343;40;7162;-63
2021/05/12 01:15:14;;;;;;;;;;;;;;;;;;1479215;40;7911;-62
2021/05/12 01:16:17;;;;;;;;;;;;;;;;;;1477640;40;7068;-61
2021/05/12 01:17:20;;;;;;;;;;;;;;;;;;1478537;40;7094;-62
2021/05/12 01:18:22;;;;;;;;;;;;;;;;;;1477978;40;7391;-61
2021/05/12 01:19:27;;;;;;;;;;;;;;;;;;1478702;40;7016;-60
2021/05/12 01:20:29;;;;;;;;;;;;;;;;;;1478315;40;7016;-62
2021/05/12 01:21:32;;;;;;;;;;;;;;;;;;1476557;40;7984;-61
2021/05/12 01:22:34;;;;;;;;;;;;;;;;;;1474654;40;7035;-62
2021/05/12 01:23:43;;;;;;;;;;;;;;;;;;1474584;40;7009;-61
2021/05/12 01:24:45;;;;;;;;;;;;;;;;;;1478588;40;7039;-65
2021/05/12 01:25:49;;;;;;;;;;;;;;;;;;1475255;40;7141;-63
2021/05/12 01:26:52;;;;;;;;;;;;;;;;;;1475203;40;7016;-62
2021/05/12 01:27:55;;;;;;;;;;;;;;;;;;1474843;40;7167;-62
2021/05/12 01:28:58;;;;;;;;;;;;;;;;;;1475161;40;7104;-63
2021/05/12 01:30:01;;;;;;;;;;;;;;;;;;1474909;40;7208;-62
2021/05/12 01:31:11;;;;;;;;;;;;;;;;;;1474543;40;7286;-62
2021/05/12 01:32:13;;;;;;;;;;;;;;;;;;1474714;40;7047;-61
2021/05/12 01:33:16;;;;;;;;;;;;;;;;;;1474848;40;7113;-62
2021/05/12 01:34:19;;;;;;;;;;;;;;;;;;1474605;40;6999;-61
2021/05/12 01:35:22;;;;;;;;;;;;;;;;;;1474065;40;7012;-61
2021/05/12 01:36:25;;;;;;;;;;;;;;;;;;1474608;40;7062;-62
2021/05/12 01:37:28;;;;;;;;;;;;;;;;;;1478571;40;7289;-60
2021/05/12 01:38:31;;;;;;;;;;;;;;;;;;1478745;40;7038;-61
2021/05/12 01:39:33;;;;;;;;;;;;;;;;;;1478989;40;7004;-62
2021/05/12 01:40:36;;;;;;;;;;;;;;;;;;1478988;40;7012;-61
2021/05/12 01:41:38;;;;;;;;;;;;;;;;;;1479276;40;7910;-61
2021/05/12 01:42:40;;;;;;;;;;;;;;;;;;1479032;40;8058;-60
2021/05/12 01:43:43;;;;;;;;;;;;;;;;;;1479411;40;7008;-63
2021/05/12 01:44:46;;;;;;;;;;;;;;;;;;1479525;40;7122;-62
2021/05/12 01:45:49;;;;;;;;;;;;;;;;;;1478088;40;7007;-61
2021/05/12 01:46:51;;;;;;;;;;;;;;;;;;1474985;40;7056;-62
2021/05/12 01:47:55;;;;;;;;;;;;;;;;;;1475176;40;7122;-61
2021/05/12 01:48:58;;;;;;;;;;;;;;;;;;1474843;40;7004;-63
2021/05/12 01:50:04;;;;;;;;;;;;;;;;;;1474964;40;7003;-63
2021/05/12 01:51:08;;;;;;;;;;;;;;;;;;1475079;40;7044;-60
2021/05/12 01:52:11;;;;;;;;;;;;;;;;;;1478657;40;7003;-61
2021/05/12 01:53:14;;;;;;;;;;;;;;;;;;1475208;40;7020;-60
2021/05/12 01:54:16;;;;;;;;;;;;;;;;;;1475788;40;7008;-62
2021/05/12 01:55:19;;;;;;;;;;;;;;;;;;1475016;40;7052;-62
2021/05/12 01:56:21;;;;;;;;;;;;;;;;;;1475832;40;7122;-61
2021/05/12 01:57:24;;;;;;;;;;;;;;;;;;1474914;40;7159;-61
2021/05/12 01:58:28;;;;;;;;;;;;;;;;;;1475277;40;7000;-62
2021/05/12 01:59:30;;;;;;;;;;;;;;;;;;1474737;40;7016;-64
2021/05/12 02:00:35;;;;;;;;;;;;;;;;;;1474848;40;7281;-60
2021/05/12 02:01:38;;;;;;;;;;;;;;;;;;1478448;40;7968;-61
2021/05/12 02:02:40;;;;;;;;;;;;;;;;;;1478992;40;7106;-61
2021/05/12 02:03:43;;;;;;;;;;;;;;;;;;1479171;40;7796;-61
2021/05/12 02:04:45;;;;;;;;;;;;;;;;;;1478778;40;7169;-61
2021/05/12 02:05:49;;;;;;;;;;;;;;;;;;1474985;40;8382;-62
2021/05/12 02:06:51;;;;;;;;;;;;;;;;;;1474662;40;7120;-64
2021/05/12 02:07:56;;;;;;;;;;;;;;;;;;1474994;40;7114;-61
2021/05/12 02:08:59;;;;;;;;;;;;;;;;;;1474832;40;7008;-62
2021/05/12 02:10:03;;;;;;;;;;;;;;;;;;1474810;40;7004;-61
2021/05/12 02:11:05;;;;;;;;;;;;;;;;;;1474889;40;7015;-62
2021/05/12 02:12:08;;;;;;;;;;;;;;;;;;1474834;40;7004;-63
2021/05/12 02:13:11;;;;;;;;;;;;;;;;;;1474884;40;7004;-60
2021/05/12 02:14:13;;;;;;;;;;;;;;;;;;1474869;40;7000;-60
2021/05/12 02:15:17;;;;;;;;;;;;;;;;;;1474847;40;7899;-63
2021/05/12 02:16:19;;;;;;;;;;;;;;;;;;1478145;40;7109;-60
2021/05/12 02:17:22;;;;;;;;;;;;;;;;;;1478211;40;7004;-62
2021/05/12 02:18:25;;;;;;;;;;;;;;;;;;1474796;40;7000;-63
2021/05/12 02:19:27;;;;;;;;;;;;;;;;;;1476792;40;7856;-62
2021/05/12 02:20:32;;;;;;;;;;;;;;;;;;1479064;40;7008;-63
2021/05/12 02:21:34;;;;;;;;;;;;;;;;;;1476799;40;7003;-61
2021/05/12 02:22:37;;;;;;;;;;;;;;;;;;1474723;40;8113;-62
2021/05/12 02:23:39;;;;;;;;;;;;;;;;;;1474499;40;7007;-62
2021/05/12 02:24:42;;;;;;;;;;;;;;;;;;1474704;40;7004;-62
2021/05/12 02:25:44;;;;;;;;;;;;;;;;;;1474435;40;7008;-61
2021/05/12 02:26:47;;;;;;;;;;;;;;;;;;1474553;40;7110;-62
2021/05/12 02:27:50;;;;;;;;;;;;;;;;;;1474562;40;7155;-62
2021/05/12 02:28:52;;;;;;;;;;;;;;;;;;1474546;40;7251;-61
2021/05/12 02:30:00;;;;;;;;;;;;;;;;;;1474320;40;7007;-61
2021/05/12 02:31:03;;;;;;;;;;;;;;;;;;1478322;40;8022;-61
2021/05/12 02:32:05;;;;;;;;;;;;;;;;;;1478645;40;7921;-59
2021/05/12 02:33:08;;;;;;;;;;;;;;;;;;1478848;40;7035;-63
2021/05/12 02:34:11;;;;;;;;;;;;;;;;;;1478498;40;7008;-60
2021/05/12 02:35:15;;;;;;;;;;;;;;;;;;1478004;40;7149;-61
2021/05/12 02:36:17;;;;;;;;;;;;;;;;;;1478354;40;7183;-61
2021/05/12 02:37:20;;;;;;;;;;;;;;;;;;1478796;40;7031;-62
2021/05/12 02:38:23;;;;;;;;;;;;;;;;;;1479059;40;7040;-62
2021/05/12 02:39:28;;;;;;;;;;;;;;;;;;1479015;40;7116;-60
2021/05/12 02:40:31;;;;;;;;;;;;;;;;;;1478703;40;7012;-62
2021/05/12 02:41:33;;;;;;;;;;;;;;;;;;1479084;40;7007;-61
2021/05/12 02:42:36;;;;;;;;;;;;;;;;;;1478926;40;7040;-61
2021/05/12 02:43:39;;;;;;;;;;;;;;;;;;1478986;40;7124;-63
2021/05/12 02:44:42;;;;;;;;;;;;;;;;;;1479126;40;7027;-62
2021/05/12 02:45:44;;;;;;;;;;;;;;;;;;1479435;40;7048;-63
2021/05/12 02:46:47;;;;;;;;;;;;;;;;;;1475164;40;7152;-60
2021/05/12 02:48:02;;;;;;;;;;;;;;;;;;1475141;40;7035;-63
2021/05/12 02:49:04;;;;;;;;;;;;;;;;;;1474972;40;7170;-62
2021/05/12 02:50:09;;;;;;;;;;;;;;;;;;1479154;40;7208;-62
2021/05/12 02:51:11;;;;;;;;;;;;;;;;;;1479167;40;7051;-61
2021/05/12 02:52:14;;;;;;;;;;;;;;;;;;1479059;40;6995;-61
2021/05/12 02:53:16;;;;;;;;;;;;;;;;;;1477867;40;7112;-61
2021/05/12 02:54:19;;;;;;;;;;;;;;;;;;1478717;40;7502;-62
2021/05/12 02:55:24;;;;;;;;;;;;;;;;;;1478830;40;7003;-62
2021/05/12 02:56:26;;;;;;;;;;;;;;;;;;1478862;40;7125;-61
2021/05/12 02:57:29;;;;;;;;;;;;;;;;;;1478863;40;7016;-61
2021/05/12 02:58:31;;;;;;;;;;;;;;;;;;1479153;40;7007;-63
2021/05/12 02:59:34;;;;;;;;;;;;;;;;;;1479160;40;7067;-63
2021/05/12 03:00:38;;;;;;;;;;;;;;;;;;1478755;40;7035;-62
2021/05/12 03:01:41;;;;;;;;;;;;;;;;;;1478643;40;7880;-63
2021/05/12 03:02:44;;;;;;;;;;;;;;;;;;1479148;40;7038;-62
2021/05/12 03:03:46;;;;;;;;;;;;;;;;;;1478670;40;7048;-61
2021/05/12 03:04:49;;;;;;;;;;;;;;;;;;1478894;40;7199;-60
2021/05/12 03:05:51;;;;;;;;;;;;;;;;;;1478584;40;7000;-60
2021/05/12 03:06:55;;;;;;;;;;;;;;;;;;1478763;40;6999;-61
2021/05/12 03:07:58;;;;;;;;;;;;;;;;;;1478356;40;7167;-62
2021/05/12 03:09:01;;;;;;;;;;;;;;;;;;1478885;40;7004;-61
2021/05/12 03:10:09;;;;;;;;;;;;;;;;;;1479215;40;7044;-62
2021/05/12 03:11:11;;;;;;;;;;;;;;;;;;1478664;40;7007;-63
2021/05/12 03:12:14;;;;;;;;;;;;;;;;;;1479108;40;7052;-60
2021/05/12 03:13:16;;;;;;;;;;;;;;;;;;1475945;40;7016;-62
2021/05/12 03:14:19;;;;;;;;;;;;;;;;;;1475258;40;7171;-60
2021/05/12 03:15:23;;;;;;;;;;;;;;;;;;1475171;40;7055;-62
2021/05/12 03:16:25;;;;;;;;;;;;;;;;;;1474607;40;7008;-62
2021/05/12 03:17:28;;;;;;;;;;;;;;;;;;1477840;40;7951;-62
2021/05/12 03:18:30;;;;;;;;;;;;;;;;;;1474593;40;7003;-62
2021/05/12 03:19:32;;;;;;;;;;;;;;;;;;1474764;40;9265;-59
2021/05/12 03:20:36;;;;;;;;;;;;;;;;;;1477942;40;7007;-60
2021/05/12 03:21:39;;;;;;;;;;;;;;;;;;1476599;40;7137;-62
2021/05/12 03:22:42;;;;;;;;;;;;;;;;;;1475041;40;7003;-60
2021/05/12 03:23:46;;;;;;;;;;;;;;;;;;1475300;40;7003;-60
2021/05/12 03:24:48;;;;;;;;;;;;;;;;;;1474929;40;7008;-61
2021/05/12 03:25:51;;;;;;;;;;;;;;;;;;1474950;40;7932;-62
2021/05/12 03:26:53;;;;;;;;;;;;;;;;;;1479236;40;7954;-64
2021/05/12 03:27:56;;;;;;;;;;;;;;;;;;1479249;40;7007;-59
2021/05/12 03:28:59;;;;;;;;;;;;;;;;;;1475058;40;7027;-60
2021/05/12 03:30:02;;;;;;;;;;;;;;;;;;1479238;40;7032;-63
2021/05/12 03:31:05;;;;;;;;;;;;;;;;;;1475179;40;7904;-61
2021/05/12 03:32:07;;;;;;;;;;;;;;;;;;1475707;40;7119;-61
2021/05/12 03:33:10;;;;;;;;;;;;;;;;;;1475339;40;7000;-62
2021/05/12 03:34:12;;;;;;;;;;;;;;;;;;1474668;40;7008;-61
2021/05/12 03:35:15;;;;;;;;;;;;;;;;;;1474086;40;7229;-61
2021/05/12 03:36:17;;;;;;;;;;;;;;;;;;1475088;40;7008;-63
2021/05/12 03:37:20;;;;;;;;;;;;;;;;;;1478243;40;7043;-62
2021/05/12 03:38:22;;;;;;;;;;;;;;;;;;1479414;40;7043;-62
2021/05/12 03:39:24;;;;;;;;;;;;;;;;;;1479601;40;8010;-61
2021/05/12 03:40:27;;;;;;;;;;;;;;;;;;1475532;40;7040;-63
2021/05/12 03:41:30;;;;;;;;;;;;;;;;;;1475341;40;7471;-62
2021/05/12 03:42:33;;;;;;;;;;;;;;;;;;1475341;40;7951;-62
2021/05/12 03:43:35;;;;;;;;;;;;;;;;;;1475182;40;6999;-61
2021/05/12 03:44:37;;;;;;;;;;;;;;;;;;1475078;40;7232;-63
2021/05/12 03:45:40;;;;;;;;;;;;;;;;;;1475009;40;7018;-61
2021/05/12 03:46:42;;;;;;;;;;;;;;;;;;1475447;40;7106;-62
2021/05/12 03:47:45;;;;;;;;;;;;;;;;;;1475457;40;7000;-63
2021/05/12 03:48:47;;;;;;;;;;;;;;;;;;1475725;40;7192;-61
2021/05/12 03:49:49;;;;;;;;;;;;;;;;;;1475650;40;7035;-63
2021/05/12 03:50:52;;;;;;;;;;;;;;;;;;1475575;40;7008;-61
2021/05/12 03:51:55;;;;;;;;;;;;;;;;;;1475134;40;7118;-62
2021/05/12 03:52:58;;;;;;;;;;;;;;;;;;1476289;40;7023;-61
2021/05/12 03:54:00;;;;;;;;;;;;;;;;;;1477425;40;7027;-62
2021/05/12 03:55:04;;;;;;;;;;;;;;;;;;1479324;40;7958;-62
2021/05/12 03:56:06;;;;;;;;;;;;;;;;;;1479388;40;7004;-62
2021/05/12 03:57:09;;;;;;;;;;;;;;;;;;1479376;40;7031;-61
2021/05/12 03:58:12;;;;;;;;;;;;;;;;;;1479158;40;7122;-60
2021/05/12 03:59:14;;;;;;;;;;;;;;;;;;1479317;40;7039;-60
2021/05/12 04:00:17;;;;;;;;;;;;;;;;;;1479215;40;7107;-61
2021/05/12 04:01:19;;;;;;;;;;;;;;;;;;1479223;40;7188;-60
2021/05/12 04:02:22;;;;;;;;;;;;;;;;;;1479337;40;7031;-60
2021/05/12 04:03:29;;;;;;;;;;;;;;;;;;1479368;40;6999;-61
2021/05/12 04:04:31;;;;;;;;;;;;;;;;;;1479238;40;7005;-61
2021/05/12 04:05:33;;;;;;;;;;;;;;;;;;1476533;40;7031;-63
2021/05/12 04:06:38;;;;;;;;;;;;;;;;;;1475558;40;7120;-62
2021/05/12 04:07:40;;;;;;;;;;;;;;;;;;1475472;40;7586;-62
2021/05/12 04:08:43;;;;;;;;;;;;;;;;;;1475267;40;7955;-61
2021/05/12 04:09:45;;;;;;;;;;;;;;;;;;1475544;40;7138;-61
2021/05/12 04:10:48;;;;;;;;;;;;;;;;;;1475283;40;7013;-60
2021/05/12 04:11:50;;;;;;;;;;;;;;;;;;1476066;40;7039;-63
2021/05/12 04:12:52;;;;;;;;;;;;;;;;;;1475360;40;8419;-61
2021/05/12 04:13:55;;;;;;;;;;;;;;;;;;1475397;40;7239;-63
2021/05/12 04:14:57;;;;;;;;;;;;;;;;;;1475795;40;7037;-63
2021/05/12 04:16:00;;;;;;;;;;;;;;;;;;1474584;40;7035;-60
2021/05/12 04:17:02;;;;;;;;;;;;;;;;;;1474996;40;7932;-62
2021/05/12 04:18:05;;;;;;;;;;;;;;;;;;1475226;40;7003;-62
2021/05/12 04:19:07;;;;;;;;;;;;;;;;;;1474943;40;7012;-62
2021/05/12 04:20:12;;;;;;;;;;;;;;;;;;1475172;40;7027;-64
2021/05/12 04:21:15;;;;;;;;;;;;;;;;;;1475566;40;6999;-63
2021/05/12 04:22:17;;;;;;;;;;;;;;;;;;1478905;40;7011;-63
2021/05/12 04:23:20;;;;;;;;;;;;;;;;;;1476070;40;7003;-61
2021/05/12 04:24:22;;;;;;;;;;;;;;;;;;1475000;40;7155;-62
2021/05/12 04:25:25;;;;;;;;;;;;;;;;;;1478833;40;7118;-61
2021/05/12 04:26:27;;;;;;;;;;;;;;;;;;1479046;40;7930;-62
2021/05/12 04:27:29;;;;;;;;;;;;;;;;;;1478703;40;7044;-63
2021/05/12 04:28:32;;;;;;;;;;;;;;;;;;1478836;40;7003;-61
2021/05/12 04:29:36;;;;;;;;;;;;;;;;;;1479136;40;7027;-61
2021/05/12 04:30:38;;;;;;;;;;;;;;;;;;1478819;40;7012;-61
2021/05/12 04:31:40;;;;;;;;;;;;;;;;;;1478870;40;7004;-62
2021/05/12 04:32:44;;;;;;;;;;;;;;;;;;1479620;40;7050;-62
2021/05/12 04:33:46;;;;;;;;;;;;;;;;;;1479550;40;7020;-61
2021/05/12 04:34:49;;;;;;;;;;;;;;;;;;1478731;40;7808;-60
2021/05/12 04:35:51;;;;;;;;;;;;;;;;;;1479058;40;7019;-63
2021/05/12 04:36:54;;;;;;;;;;;;;;;;;;1478328;40;7222;-62
2021/05/12 04:37:57;;;;;;;;;;;;;;;;;;1475894;40;7333;-63
2021/05/12 04:39:01;;;;;;;;;;;;;;;;;;1479640;40;7000;-62
2021/05/12 04:40:03;;;;;;;;;;;;;;;;;;1479131;40;7232;-59
2021/05/12 04:41:06;;;;;;;;;;;;;;;;;;1479231;40;7087;-62
2021/05/12 04:42:08;;;;;;;;;;;;;;;;;;1478873;40;7051;-63
2021/05/12 04:43:12;;;;;;;;;;;;;;;;;;1479095;40;7003;-60
2021/05/12 04:44:14;;;;;;;;;;;;;;;;;;1479206;40;7007;-62
2021/05/12 04:45:18;;;;;;;;;;;;;;;;;;1479131;40;8013;-62
2021/05/12 04:46:21;;;;;;;;;;;;;;;;;;1475551;40;7192;-60
2021/05/12 04:47:24;;;;;;;;;;;;;;;;;;1475104;40;7971;-63
2021/05/12 04:48:26;;;;;;;;;;;;;;;;;;1475096;40;7869;-61
2021/05/12 04:49:29;;;;;;;;;;;;;;;;;;1475090;40;8264;-61
2021/05/12 04:50:33;;;;;;;;;;;;;;;;;;1478816;40;7007;-60
2021/05/12 04:51:35;;;;;;;;;;;;;;;;;;1479242;40;7031;-61
2021/05/12 04:52:38;;;;;;;;;;;;;;;;;;1479504;40;7112;-63
2021/05/12 04:53:40;;;;;;;;;;;;;;;;;;1475913;40;7377;-63
2021/05/12 04:54:43;;;;;;;;;;;;;;;;;;1479150;40;7040;-62
2021/05/12 04:55:45;;;;;;;;;;;;;;;;;;1479138;40;8366;-60
2021/05/12 04:56:49;;;;;;;;;;;;;;;;;;1479282;40;7011;-61
2021/05/12 04:57:52;;;;;;;;;;;;;;;;;;1479088;40;7976;-62
2021/05/12 04:58:58;;;;;;;;;;;;;;;;;;1475512;40;7719;-63
2021/05/12 05:00:01;;;;;;;;;;;;;;;;;;1475056;40;6996;-63
2021/05/12 05:01:03;;;;;;;;;;;;;;;;;;1474872;40;7112;-62
2021/05/12 05:02:08;;;;;;;;;;;;;;;;;;1474982;40;7000;-62
2021/05/12 05:03:11;;;;;;;;;;;;;;;;;;1475076;40;7063;-60
2021/05/12 05:04:16;;;;;;;;;;;;;;;;;;1474866;40;6996;-61
2021/05/12 05:05:20;;;;;;;;;;;;;;;;;;1475710;40;7187;-62
2021/05/12 05:06:23;;;;;;;;;;;;;;;;;;1475616;40;7008;-64
2021/05/12 05:07:25;;;;;;;;;;;;;;;;;;1479123;40;7951;-62
2021/05/12 05:08:27;;;;;;;;;;;;;;;;;;1479151;40;7871;-61
2021/05/12 05:09:30;;;;;;;;;;;;;;;;;;1479120;40;7208;-62
2021/05/12 05:10:33;;;;;;;;;;;;;;;;;;1479004;40;7114;-63
2021/05/12 05:11:35;;;;;;;;;;;;;;;;;;1479183;40;7035;-61
2021/05/12 05:12:38;;;;;;;;;;;;;;;;;;1479155;40;7035;-62
2021/05/12 05:13:40;;;;;;;;;;;;;;;;;;1479207;40;7007;-62
2021/05/12 05:14:43;;;;;;;;;;;;;;;;;;1479536;40;7931;-63
2021/05/12 05:15:45;;;;;;;;;;;;;;;;;;1479457;40;7062;-63
2021/05/12 05:16:48;;;;;;;;;;;;;;;;;;1475258;40;7012;-62
2021/05/12 05:17:51;;;;;;;;;;;;;;;;;;1475476;40;7935;-62
2021/05/12 05:18:53;;;;;;;;;;;;;;;;;;1474939;40;7019;-60
2021/05/12 05:19:57;;;;;;;;;;;;;;;;;;1475511;40;7047;-60
2021/05/12 05:21:01;;;;;;;;;;;;;;;;;;1474921;40;7055;-61
2021/05/12 05:22:03;;;;;;;;;;;;;;;;;;1478721;40;7095;-62
2021/05/12 05:23:06;;;;;;;;;;;;;;;;;;1479821;40;7906;-61
2021/05/12 05:24:09;;;;;;;;;;;;;;;;;;1478208;40;7206;-63
2021/05/12 05:25:12;;;;;;;;;;;;;;;;;;1474537;40;7023;-63
2021/05/12 05:26:14;;;;;;;;;;;;;;;;;;1474878;40;7003;-64
2021/05/12 05:27:16;;;;;;;;;;;;;;;;;;1474716;40;7188;-62
2021/05/12 05:28:19;;;;;;;;;;;;;;;;;;1474922;40;7136;-60
2021/05/12 05:29:21;;;;;;;;;;;;;;;;;;1474829;40;7994;-61
2021/05/12 05:30:24;;;;;;;;;;;;;;;;;;1474897;40;8224;-64
2021/05/12 05:31:26;;;;;;;;;;;;;;;;;;1474937;40;7187;-62
2021/05/12 05:32:29;;;;;;;;;;;;;;;;;;1474969;40;7012;-62
2021/05/12 05:33:31;;;;;;;;;;;;;;;;;;1475001;40;7031;-61
2021/05/12 05:34:33;;;;;;;;;;;;;;;;;;1474778;40;7027;-64
2021/05/12 05:35:36;;;;;;;;;;;;;;;;;;1474225;40;8351;-62
2021/05/12 05:36:40;;;;;;;;;;;;;;;;;;1475074;40;7901;-64
2021/05/12 05:37:43;;;;;;;;;;;;;;;;;;1475208;40;6999;-62
2021/05/12 05:38:45;;;;;;;;;;;;;;;;;;1478972;40;7000;-63
2021/05/12 05:39:47;;;;;;;;;;;;;;;;;;1475873;40;7003;-60
2021/05/12 05:40:50;;;;;;;;;;;;;;;;;;1475921;40;7019;-64
2021/05/12 05:41:55;;;;;;;;;;;;;;;;;;1477323;40;7974;-61
2021/05/12 05:43:01;;;;;;;;;;;;;;;;;;1479655;40;7052;-61
2021/05/12 05:44:04;;;;;;;;;;;;;;;;;;1479146;40;9253;-62
2021/05/12 05:45:06;;;;;;;;;;;;;;;;;;1479248;40;7012;-62
2021/05/12 05:46:09;;;;;;;;;;;;;;;;;;1476309;40;7012;-62
2021/05/12 05:47:11;;;;;;;;;;;;;;;;;;1479524;40;7007;-62
2021/05/12 05:48:14;;;;;;;;;;;;;;;;;;1478610;40;7016;-61
2021/05/12 05:49:16;;;;;;;;;;;;;;;;;;1475916;40;7048;-61
2021/05/12 05:50:19;;;;;;;;;;;;;;;;;;1474875;40;7915;-62
2021/05/12 05:51:23;;;;;;;;;;;;;;;;;;1475140;40;7023;-62
2021/05/12 05:52:25;;;;;;;;;;;;;;;;;;1475058;40;7054;-63
2021/05/12 05:53:28;;;;;;;;;;;;;;;;;;1474911;40;7227;-62
2021/05/12 05:54:30;;;;;;;;;;;;;;;;;;1474846;40;7133;-62
2021/05/12 05:55:33;;;;;;;;;;;;;;;;;;1475274;40;7816;-64
2021/05/12 05:56:36;;;;;;;;;;;;;;;;;;1474894;40;7120;-62
2021/05/12 05:57:38;;;;;;;;;;;;;;;;;;1475219;40;7008;-61
2021/05/12 05:58:40;;;;;;;;;;;;;;;;;;1478530;40;7112;-62
2021/05/12 05:59:44;;;;;;;;;;;;;;;;;;1479463;40;7043;-61
2021/05/12 06:00:47;;;;;;;;;;;;;;;;;;1479061;40;7881;-62
2021/05/12 06:01:49;;;;;;;;;;;;;;;;;;1479245;40;7122;-63
2021/05/12 06:02:52;;;;;;;;;;;;;;;;;;1479392;40;7012;-62
2021/05/12 06:03:55;;;;;;;;;;;;;;;;;;1479185;40;7007;-61
2021/05/12 06:04:57;;;;;;;;;;;;;;;;;;1478916;40;7008;-63
2021/05/12 06:06:00;;;;;;;;;;;;;;;;;;1475293;40;7008;-62
2021/05/12 06:07:02;;;;;;;;;;;;;;;;;;1474924;40;7027;-61
2021/05/12 06:08:05;;;;;;;;;;;;;;;;;;1475203;40;6999;-62
2021/05/12 06:09:07;;;;;;;;;;;;;;;;;;1475262;40;7003;-62
2021/05/12 06:10:10;;;;;;;;;;;;;;;;;;1475249;40;7004;-62
2021/05/12 06:11:12;;;;;;;;;;;;;;;;;;1475298;40;7114;-63
2021/05/12 06:12:15;;;;;;;;;;;;;;;;;;1475374;40;7035;-62
2021/05/12 06:13:17;;;;;;;;;;;;;;;;;;1475330;40;7003;-64
2021/05/12 06:14:20;;;;;;;;;;;;;;;;;;1474901;40;7857;-62
2021/05/12 06:15:23;;;;;;;;;;;;;;;;;;1474745;40;7122;-63
2021/05/12 06:16:26;;;;;;;;;;;;;;;;;;1474481;40;7048;-62
2021/05/12 06:17:29;;;;;;;;;;;;;;;;;;1475262;40;7699;-62
2021/05/12 06:18:31;;;;;;;;;;;;;;;;;;1474632;40;7077;-62
2021/05/12 06:19:34;;;;;;;;;;;;;;;;;;1474667;40;7031;-60
2021/05/12 06:20:36;;;;;;;;;;;;;;;;;;1474942;40;7007;-61
2021/05/12 06:21:39;;;;;;;;;;;;;;;;;;1475682;40;7039;-64
2021/05/12 06:22:42;;;;;;;;;;;;;;;;;;1474844;40;7042;-60
2021/05/12 06:23:45;;;;;;;;;;;;;;;;;;1475359;40;7003;-61
2021/05/12 06:24:47;;;;;;;;;;;;;;;;;;1476360;40;7243;-62
2021/05/12 06:25:50;;;;;;;;;;;;;;;;;;1478777;40;7008;-63
2021/05/12 06:26:54;;;;;;;;;;;;;;;;;;1478885;40;7011;-61
2021/05/12 06:27:56;;;;;;;;;;;;;;;;;;1478572;40;6999;-63
2021/05/12 06:28:59;;;;;;;;;;;;;;;;;;1478778;40;7011;-64
2021/05/12 06:30:01;;;;;;;;;;;;;;;;;;1478628;40;7015;-61
2021/05/12 06:31:04;;;;;;;;;;;;;;;;;;1478665;40;7007;-63
2021/05/12 06:32:07;;;;;;;;;;;;;;;;;;1478884;40;7895;-61
2021/05/12 06:33:10;;;;;;;;;;;;;;;;;;1478863;40;7472;-61
2021/05/12 06:34:12;;;;;;;;;;;;;;;;;;1478695;40;7896;-62
2021/05/12 06:35:14;;;;;;;;;;;;;;;;;;1478224;40;7007;-62
2021/05/12 06:36:17;;;;;;;;;;;;;;;;;;1478759;40;7864;-64
2021/05/12 06:37:39;;;;;;;;;;;;;;;;;;1479424;40;7130;-62
2021/05/12 06:38:42;;;;;;;;;;;;;;;;;;1479325;40;7159;-62
2021/05/12 06:39:44;;;;;;;;;;;;;;;;;;1479171;40;7079;-62
2021/05/12 06:40:47;;;;;;;;;;;;;;;;;;1478468;40;7008;-61
2021/05/12 06:41:49;;;;;;;;;;;;;;;;;;1475274;40;7112;-63
2021/05/12 06:42:52;;;;;;;;;;;;;;;;;;1481206;40;7027;-61
2021/05/12 06:43:55;;;;;;;;;;;;;;;;;;1482551;40;7043;-62
2021/05/12 06:44:57;;;;;;;;;;;;;;;;;;1478974;40;7020;-61
2021/05/12 06:45:59;;;;;;;;;;;;;;;;;;1476771;40;7048;-61
2021/05/12 06:47:02;;;;;;;;;;;;;;;;;;1474894;40;7927;-63
2021/05/12 06:48:05;;;;;;;;;;;;;;;;;;1475155;40;7035;-63
2021/05/12 06:49:07;;;;;;;;;;;;;;;;;;1475867;40;7071;-63
2021/05/12 06:50:10;;;;;;;;;;;;;;;;;;1475025;40;8205;-61
2021/05/12 06:51:13;;;;;;;;;;;;;;;;;;1474965;40;7183;-60
2021/05/12 06:52:15;;;;;;;;;;;;;;;;;;1475218;40;7035;-63
2021/05/12 06:53:25;;;;;;;;;;;;;;;;;;1478504;40;6992;-60
2021/05/12 06:54:27;;;;;;;;;;;;;;;;;;1478260;40;7932;-62
2021/05/12 06:55:29;;;;;;;;;;;;;;;;;;1475535;40;7003;-63
2021/05/12 06:56:32;;;;;;;;;;;;;;;;;;1479704;40;7013;-62
2021/05/12 06:57:34;;;;;;;;;;;;;;;;;;1479541;40;7077;-62
2021/05/12 06:58:41;;;;;;;;;;;;;;;;;;1475877;40;7019;-62
2021/05/12 06:59:43;;;;;;;;;;;;;;;;;;1479634;40;7005;-61
2021/05/12 07:00:46;;;;;;;;;;;;;;;;;;1479771;40;6999;-62
2021/05/12 07:01:48;;;;;;;;;;;;;;;;;;1475816;40;6999;-61
2021/05/12 07:02:51;;;;;;;;;;;;;;;;;;1475610;40;7007;-62
2021/05/12 07:03:54;;;;;;;;;;;;;;;;;;1475737;40;7048;-62
2021/05/12 07:04:56;;;;;;;;;;;;;;;;;;1479457;40;7011;-61
2021/05/12 07:06:00;;;;;;;;;;;;;;;;;;1478829;40;7159;-62
2021/05/12 07:07:02;;;;;;;;;;;;;;;;;;1475727;40;7035;-61
2021/05/12 07:08:04;;;;;;;;;;;;;;;;;;1475469;40;7014;-65
2021/05/12 07:09:07;;;;;;;;;;;;;;;;;;1475474;40;7031;-62
2021/05/12 07:10:10;;;;;;;;;;;;;;;;;;1475218;40;7910;-62
2021/05/12 07:11:13;;;;;;;;;;;;;;;;;;1475306;40;7008;-62
2021/05/12 07:12:15;;;;;;;;;;;;;;;;;;1475389;40;7043;-63
2021/05/12 07:13:18;;;;;;;;;;;;;;;;;;1475402;40;7031;-62
2021/05/12 07:14:20;;;;;;;;;;;;;;;;;;1475378;40;7009;-61
2021/05/12 07:15:23;;;;;;;;;;;;;;;;;;1475618;40;7007;-62
2021/05/12 07:16:25;;;;;;;;;;;;;;;;;;1475382;40;7016;-60
2021/05/12 07:17:28;;;;;;;;;;;;;;;;;;1479024;40;7122;-63